Impacts TAF Board INFO
FOR SITUATIONAL AWARENESS. NOT TO BE USED FOR FLIGHT PLANNING PURPOSES.
IDs:

KMSP - Minneapolis-St Paul, MN, US

Issued at 0830 UTC 24 Jun 2018
Updated at 1030 UTC 24 Jun 2018
Potential Impact None Slight Moderate High
Time<<24/23Z 25/00Z 25/01Z 25/02Z 25/03Z 25/04Z 25/05Z 25/06Z 25/07Z 25/08Z 25/09Z 25/10Z 25/11Z>>
Type PRVL PRVL PRVL PRVL PRVL PRVL PRVL PRVL PRVL PRVL PRVL PRVL PRVL
VIS >6 >6 >6 >6 >6 >6 >6 >6 >6 >6 >6 >6 >6
CIG 80 100 100 100 100 100 100 100 100 100 100 100 100
Cover BKN OVC OVC OVC OVC OVC OVC OVC OVC OVC OVC OVC OVC
FltCat VFR VFR VFR VFR VFR VFR VFR VFR VFR VFR VFR VFR VFR
WX VCSH -- -- -- -- -- -- -- -- -- -- -- --
WDir 90 80 80 80 80 80 80 80 80 80 80 80 80
WSpd 7 7 7 7 7 7 7 7 7 7 7 7 7
WGst -- -- -- -- -- -- -- -- -- -- -- -- --

Raw TAF
KMSP 240830Z 2408/2512 VRB03KT P6SM SCT080
  FM241500 08005KT P6SM SCT040 BKN120
  FM241800 09007KT P6SM VCSH SCT040 BKN080
  FM250000 08007KT P6SM OVC100


METAR Board
Radar Display
Forecast Discussion

FOR SITUATIONAL AWARENESS. NOT TO BE USED FOR FLIGHT PLANNING PURPOSES.